createdAt,value
2023-06-07T00:00:27.963Z,3.17
2023-06-07T00:10:50.557Z,3.17
2023-06-07T00:21:13.860Z,3.40
2023-06-07T00:31:35.723Z,3.22
2023-06-07T00:41:58.810Z,3.20
2023-06-07T00:52:20.261Z,3.00
2023-06-07T01:02:47.424Z,3.20
2023-06-07T01:13:10.638Z,3.05
2023-06-07T01:23:36.072Z,3.33
2023-06-07T01:33:58.024Z,3.42
2023-06-07T01:44:22.064Z,2.97
2023-06-07T01:54:45.414Z,2.95
2023-06-07T02:05:14.182Z,3.17
2023-06-07T02:15:37.760Z,2.70
2023-06-07T02:26:03.593Z,3.35
2023-06-07T02:36:26.549Z,3.33
2023-06-07T02:46:49.780Z,3.40
2023-06-07T02:57:11.618Z,3.63
2023-06-07T03:07:35.889Z,3.33
2023-06-07T03:17:59.966Z,3.25
2023-06-07T03:28:23.882Z,3.58
2023-06-07T03:38:46.137Z,2.90
2023-06-07T03:49:10.693Z,3.65
2023-06-07T03:59:33.427Z,3.60
2023-06-07T04:09:57.946Z,3.37
2023-06-07T04:20:19.610Z,2.88
2023-06-07T04:30:45.464Z,3.03
2023-06-07T04:41:08.550Z,2.95
2023-06-07T04:51:39.755Z,3.38
2023-06-07T05:02:03.063Z,3.20
2023-06-07T05:12:28.089Z,3.47
2023-06-07T05:22:51.592Z,3.50
2023-06-07T05:33:15.033Z,4.00
2023-06-07T05:54:02.605Z,3.22
2023-06-07T06:04:29.370Z,3.20
2023-06-07T06:14:53.278Z,3.45
2023-06-07T06:25:15.158Z,3.33
2023-06-07T06:35:38.099Z,3.00
2023-06-07T06:45:59.671Z,2.65
2023-06-07T06:56:24.392Z,2.85
2023-06-07T07:06:46.247Z,2.95
2023-06-07T07:17:09.290Z,3.05
2023-06-07T07:27:31.036Z,3.10
2023-06-07T07:37:55.683Z,3.22
2023-06-07T07:48:17.513Z,3.20
2023-06-07T07:58:40.211Z,3.25
2023-06-07T08:09:03.878Z,3.00
2023-06-07T08:19:27.384Z,3.47
2023-06-07T08:29:50.322Z,3.20
2023-06-07T08:40:19.365Z,3.47
2023-06-07T08:50:42.527Z,3.65
2023-06-07T09:01:06.496Z,3.38
2023-06-07T09:11:28.534Z,3.53
2023-06-07T09:21:51.794Z,3.72
2023-06-07T09:32:20.337Z,3.33
2023-06-07T09:42:44.690Z,3.50
2023-06-07T09:53:06.008Z,3.47
2023-06-07T10:03:29.473Z,3.73
2023-06-07T10:13:55.100Z,3.70
2023-06-07T10:24:22.912Z,3.60
2023-06-07T10:34:49.019Z,3.78
2023-06-07T10:45:16.508Z,3.40
2023-06-07T10:55:38.235Z,3.45
2023-06-07T11:16:39.735Z,3.67
2023-06-07T11:27:02.917Z,2.65
2023-06-07T11:37:25.512Z,3.22
2023-06-07T11:47:52.495Z,3.70
2023-06-07T11:58:16.073Z,3.33
2023-06-07T12:08:39.658Z,3.20
2023-06-07T12:19:01.163Z,3.30
2023-06-07T12:29:30.731Z,3.72
2023-06-07T12:39:52.435Z,3.13
2023-06-07T12:50:15.615Z,3.63
2023-06-07T13:00:48.001Z,3.50
2023-06-07T13:11:11.017Z,4.00
2023-06-07T13:21:33.031Z,3.70
2023-06-07T13:31:56.148Z,3.80
2023-06-07T13:42:20.233Z,3.20
2023-06-07T13:52:43.593Z,3.55
2023-06-07T14:03:05.889Z,3.50
2023-06-07T14:13:29.280Z,3.40
2023-06-07T14:23:50.804Z,3.83
2023-06-07T14:34:13.466Z,3.45
2023-06-07T14:44:35.166Z,3.67
2023-06-07T14:54:58.077Z,3.35
2023-06-07T15:05:21.096Z,3.60
2023-06-07T15:15:44.287Z,3.60
2023-06-07T15:26:06.135Z,3.78
2023-06-07T15:36:28.847Z,3.83
2023-06-07T15:46:50.488Z,3.75
2023-06-07T15:57:13.543Z,4.35
2023-06-07T16:07:35.873Z,3.95
2023-06-07T16:17:59.079Z,3.67
2023-06-07T16:28:20.979Z,3.60
2023-06-07T16:49:06.084Z,3.40
2023-06-07T16:59:29.115Z,3.75
2023-06-07T17:09:51.043Z,4.10
2023-06-07T17:20:14.503Z,4.40
2023-06-07T17:30:39.922Z,4.20
2023-06-07T17:41:03.320Z,4.30
2023-06-07T17:51:25.101Z,4.18
2023-06-07T18:01:52.804Z,3.83
2023-06-07T18:12:15.463Z,4.25
2023-06-07T18:22:39.406Z,4.20
2023-06-07T18:33:01.282Z,4.10
2023-06-07T18:43:24.409Z,4.30
2023-06-07T18:53:46.321Z,5.65
2023-06-07T19:04:09.549Z,5.28
2023-06-07T19:14:33.008Z,5.18
2023-06-07T19:24:55.811Z,4.17
2023-06-07T19:35:18.051Z,4.57
2023-06-07T19:45:41.284Z,4.15
2023-06-07T19:56:02.827Z,4.10
2023-06-07T20:06:25.878Z,4.25
2023-06-07T20:16:47.520Z,3.87
2023-06-07T20:27:10.686Z,4.30
2023-06-07T20:37:33.571Z,3.93
2023-06-07T20:47:56.659Z,4.20
2023-06-07T20:58:19.853Z,4.22
2023-06-07T21:08:44.663Z,4.18
2023-06-07T21:19:06.259Z,4.65
2023-06-07T21:29:29.313Z,4.00
2023-06-07T21:39:52.596Z,4.57
2023-06-07T21:50:16.083Z,4.05
2023-06-07T22:00:37.946Z,4.20
2023-06-07T22:11:01.500Z,4.35
2023-06-07T22:21:24.208Z,4.35
2023-06-07T22:31:47.302Z,3.97
2023-06-07T22:42:09.618Z,4.70
2023-06-07T22:52:35.806Z,5.25
2023-06-07T23:02:58.473Z,5.05
2023-06-07T23:13:21.696Z,4.22
2023-06-07T23:23:43.604Z,4.07
2023-06-07T23:34:06.341Z,4.05
2023-06-07T23:44:28.748Z,4.20
2023-06-07T23:54:51.616Z,4.25
